createdAt,value
2018-09-22T00:00:40.009Z,979.46
2018-09-22T00:01:40.002Z,979.43
2018-09-22T00:02:39.993Z,979.43
2018-09-22T00:03:39.977Z,979.43
2018-09-22T00:04:39.969Z,979.42
2018-09-22T00:05:39.960Z,979.37
2018-09-22T00:06:39.951Z,979.35
2018-09-22T00:07:39.948Z,979.31
2018-09-22T00:08:39.936Z,979.28
2018-09-22T00:09:39.924Z,979.30
2018-09-22T00:10:39.915Z,979.35
2018-09-22T00:11:39.908Z,979.37
2018-09-22T00:12:39.904Z,979.43
2018-09-22T00:13:39.892Z,979.53
2018-09-22T00:14:39.886Z,979.53
2018-09-22T00:15:39.871Z,979.56
2018-09-22T00:16:39.869Z,979.60
2018-09-22T00:17:39.857Z,979.56
2018-09-22T00:18:39.847Z,979.54
2018-09-22T00:19:39.835Z,979.38
2018-09-22T00:20:39.828Z,979.29
2018-09-22T00:21:39.821Z,979.21
2018-09-22T00:22:39.809Z,979.15
2018-09-22T00:23:39.800Z,979.22
2018-09-22T00:24:39.792Z,979.24
2018-09-22T00:25:39.782Z,979.30
2018-09-22T00:26:39.773Z,979.36
2018-09-22T00:27:39.774Z,979.39
2018-09-22T00:28:39.759Z,979.48
2018-09-22T00:29:39.753Z,979.52
2018-09-22T00:30:39.741Z,979.55
2018-09-22T00:31:39.729Z,979.56
2018-09-22T00:32:39.726Z,979.48
2018-09-22T00:33:39.718Z,979.42
2018-09-22T00:34:39.707Z,979.41
2018-09-22T00:35:39.699Z,979.41
2018-09-22T00:36:39.688Z,979.42
2018-09-22T00:37:39.679Z,979.43
2018-09-22T00:38:39.669Z,979.47
2018-09-22T00:39:39.660Z,979.48
2018-09-22T00:40:39.654Z,979.50
2018-09-22T00:41:39.642Z,979.53
2018-09-22T00:42:39.633Z,979.52
2018-09-22T00:43:39.621Z,979.52
2018-09-22T00:44:39.612Z,979.52
2018-09-22T00:45:39.610Z,979.53
2018-09-22T00:46:39.594Z,979.51
2018-09-22T00:47:39.586Z,979.49
2018-09-22T00:48:39.583Z,979.42
2018-09-22T00:49:39.568Z,979.39
2018-09-22T00:50:39.562Z,979.35
2018-09-22T00:51:39.557Z,979.41
2018-09-22T00:52:39.542Z,979.43
2018-09-22T00:53:39.537Z,979.41
2018-09-22T00:54:39.526Z,979.36
2018-09-22T00:55:39.523Z,979.32
2018-09-22T00:56:39.507Z,979.32
2018-09-22T00:57:39.496Z,979.41
2018-09-22T00:58:39.487Z,979.48
2018-09-22T00:59:39.479Z,979.52
2018-09-22T01:00:39.501Z,979.55
2018-09-22T01:01:39.463Z,979.56
2018-09-22T01:02:39.457Z,979.50
2018-09-22T01:03:39.445Z,979.48
2018-09-22T01:04:39.434Z,979.42
2018-09-22T01:05:39.431Z,979.37
2018-09-22T01:06:39.422Z,979.36
2018-09-22T01:07:39.410Z,979.38
2018-09-22T01:08:39.401Z,979.37
2018-09-22T01:09:39.393Z,979.35
2018-09-22T01:10:39.379Z,979.35
2018-09-22T01:11:39.375Z,979.33
2018-09-22T01:12:39.365Z,979.36
2018-09-22T01:13:39.357Z,979.30
2018-09-22T01:14:39.343Z,979.18
2018-09-22T01:15:39.355Z,979.14
2018-09-22T01:16:39.325Z,979.09
2018-09-22T01:17:39.314Z,979.04
2018-09-22T01:18:39.306Z,979.11
2018-09-22T01:19:39.297Z,979.18
2018-09-22T01:20:39.288Z,979.26
2018-09-22T01:21:39.284Z,979.29
2018-09-22T01:22:39.275Z,979.29
2018-09-22T01:23:39.263Z,979.34
2018-09-22T01:24:39.251Z,979.38
2018-09-22T01:25:39.241Z,979.40
2018-09-22T01:26:39.236Z,979.41
2018-09-22T01:27:39.228Z,979.42
2018-09-22T01:28:39.221Z,979.43
2018-09-22T01:29:39.209Z,979.49
2018-09-22T01:30:39.199Z,979.54
2018-09-22T01:31:39.193Z,979.58
2018-09-22T01:32:39.180Z,979.61
2018-09-22T01:33:39.169Z,979.66
2018-09-22T01:34:39.160Z,979.64
2018-09-22T01:35:39.154Z,979.72
2018-09-22T01:36:39.148Z,979.76
2018-09-22T01:37:39.136Z,979.77
2018-09-22T01:38:39.127Z,979.80
2018-09-22T01:39:39.123Z,979.80
2018-09-22T01:40:39.110Z,979.81
2018-09-22T01:41:39.095Z,979.73
2018-09-22T01:42:39.093Z,979.77
2018-09-22T01:43:39.077Z,979.77
2018-09-22T01:44:39.070Z,979.80
2018-09-22T01:45:39.063Z,979.81
2018-09-22T01:46:39.053Z,979.83
2018-09-22T01:47:39.044Z,979.81
2018-09-22T01:48:39.035Z,979.80
2018-09-22T01:49:39.023Z,979.76
2018-09-22T01:50:39.014Z,979.81
2018-09-22T01:51:39.009Z,979.79
2018-09-22T01:52:38.999Z,979.85
2018-09-22T01:53:38.989Z,979.85
2018-09-22T01:54:38.981Z,979.86
2018-09-22T01:55:38.970Z,979.87
2018-09-22T01:56:38.959Z,979.87
2018-09-22T01:57:38.951Z,979.85
2018-09-22T01:58:38.940Z,979.81
2018-09-22T01:59:38.933Z,979.79
2018-09-22T02:00:38.930Z,979.76
2018-09-22T02:01:38.912Z,979.74
2018-09-22T02:02:38.903Z,979.74
2018-09-22T02:03:38.894Z,979.72
2018-09-22T02:04:38.884Z,979.77
2018-09-22T02:05:38.874Z,979.72
2018-09-22T02:06:38.866Z,979.76
2018-09-22T02:07:38.863Z,979.77
2018-09-22T02:08:38.848Z,979.77
2018-09-22T02:09:38.839Z,979.79
2018-09-22T02:10:38.916Z,979.79
2018-09-22T02:11:38.820Z,979.79
2018-09-22T02:12:38.819Z,979.81
2018-09-22T02:13:38.807Z,979.78
2018-09-22T02:14:38.791Z,979.77
2018-09-22T02:15:38.785Z,979.80
2018-09-22T02:16:38.776Z,979.79
2018-09-22T02:17:38.769Z,979.81
2018-09-22T02:18:38.760Z,979.85
2018-09-22T02:19:38.751Z,979.80
2018-09-22T02:20:38.736Z,979.80
2018-09-22T02:21:38.732Z,979.89
2018-09-22T02:22:38.720Z,979.92
2018-09-22T02:23:38.709Z,979.91
2018-09-22T02:24:38.705Z,979.98
2018-09-22T02:25:38.695Z,979.97
2018-09-22T02:26:38.680Z,980.02
2018-09-22T02:27:38.672Z,979.99
2018-09-22T02:28:38.668Z,980.00
2018-09-22T02:29:38.655Z,980.05
2018-09-22T02:30:38.646Z,979.98
2018-09-22T02:31:38.633Z,979.95
2018-09-22T02:32:38.625Z,979.95
2018-09-22T02:33:38.615Z,979.97
2018-09-22T02:34:38.607Z,980.01
2018-09-22T02:35:38.604Z,979.98
2018-09-22T02:36:38.592Z,980.04
2018-09-22T02:37:38.578Z,979.94
2018-09-22T02:38:38.569Z,979.90
2018-09-22T02:39:38.559Z,979.88
2018-09-22T02:40:38.550Z,979.89
2018-09-22T02:41:38.544Z,979.88
2018-09-22T02:42:38.537Z,979.90
2018-09-22T02:43:38.529Z,979.89
2018-09-22T02:44:38.513Z,979.91
2018-09-22T02:45:38.505Z,979.92
2018-09-22T02:46:38.494Z,979.89
2018-09-22T02:47:38.485Z,979.91
2018-09-22T02:48:38.480Z,979.87
2018-09-22T02:49:38.472Z,979.79
2018-09-22T02:50:38.457Z,979.72
2018-09-22T02:51:38.448Z,979.68
2018-09-22T02:52:38.439Z,979.69
2018-09-22T02:53:38.428Z,979.57
2018-09-22T02:54:38.420Z,979.58
2018-09-22T02:55:38.414Z,979.58
2018-09-22T02:56:38.402Z,979.59
2018-09-22T02:57:38.398Z,979.64
2018-09-22T02:58:38.382Z,979.61
2018-09-22T02:59:38.375Z,979.57
2018-09-22T03:00:38.364Z,979.57
2018-09-22T03:01:38.354Z,979.56
2018-09-22T03:02:38.345Z,979.50
2018-09-22T03:03:38.341Z,979.43
2018-09-22T03:04:38.330Z,979.38
2018-09-22T03:05:38.321Z,979.47
2018-09-22T03:06:38.360Z,979.50
2018-09-22T03:07:38.298Z,979.52
2018-09-22T03:08:38.308Z,979.50
2018-09-22T03:09:38.279Z,979.52
2018-09-22T03:10:38.276Z,979.57
2018-09-22T03:11:38.267Z,979.59
2018-09-22T03:12:38.252Z,979.61
2018-09-22T03:13:38.248Z,979.71
2018-09-22T03:14:38.233Z,979.76
2018-09-22T03:15:38.231Z,979.71
2018-09-22T03:16:38.218Z,979.67
2018-09-22T03:17:38.213Z,979.63
2018-09-22T03:18:38.197Z,979.61
2018-09-22T03:19:38.187Z,979.66
2018-09-22T03:20:38.178Z,979.73
2018-09-22T03:21:38.173Z,979.78
2018-09-22T03:22:38.159Z,979.83
2018-09-22T03:23:38.156Z,979.84
2018-09-22T03:24:38.141Z,979.83
2018-09-22T03:25:38.136Z,979.83
2018-09-22T03:26:38.124Z,979.85
2018-09-22T03:27:38.112Z,979.81
2018-09-22T03:28:38.104Z,979.77
2018-09-22T03:29:38.095Z,979.77
2018-09-22T03:30:38.085Z,979.72
2018-09-22T03:31:38.078Z,979.71
2018-09-22T03:32:38.070Z,979.65
2018-09-22T03:33:38.063Z,979.63
2018-09-22T03:34:38.052Z,979.58
2018-09-22T03:35:38.044Z,979.49
2018-09-22T03:36:38.030Z,979.49
2018-09-22T03:37:38.019Z,979.50
2018-09-22T03:38:38.010Z,979.49
2018-09-22T03:39:38.006Z,979.50
2018-09-22T03:40:37.994Z,979.54
2018-09-22T03:41:37.988Z,979.53
2018-09-22T03:42:37.975Z,979.51
2018-09-22T03:43:37.968Z,979.52
2018-09-22T03:44:37.956Z,979.59
2018-09-22T03:45:37.944Z,979.63
2018-09-22T03:46:37.937Z,979.73
2018-09-22T03:47:37.924Z,979.75
2018-09-22T03:48:37.916Z,979.62
2018-09-22T03:49:37.911Z,979.60
2018-09-22T03:50:37.903Z,979.61
2018-09-22T03:51:37.888Z,979.60
2018-09-22T03:52:37.881Z,979.58
2018-09-22T03:53:37.869Z,979.58
2018-09-22T03:54:37.866Z,979.65
2018-09-22T03:55:37.856Z,979.71
2018-09-22T03:56:37.840Z,979.76
2018-09-22T03:57:37.830Z,979.82
2018-09-22T03:58:37.820Z,979.84
2018-09-22T03:59:37.811Z,979.91
2018-09-22T04:00:37.806Z,979.92
2018-09-22T04:01:37.792Z,979.96
2018-09-22T04:02:37.783Z,979.98
2018-09-22T04:03:37.773Z,979.95
2018-09-22T04:04:37.767Z,979.95
2018-09-22T04:05:37.759Z,979.87
2018-09-22T04:06:37.750Z,979.85
2018-09-22T04:07:37.738Z,979.82
2018-09-22T04:08:37.743Z,979.86
2018-09-22T04:09:37.715Z,979.91
2018-09-22T04:10:37.710Z,979.93
2018-09-22T04:11:37.696Z,979.93
2018-09-22T04:12:37.691Z,979.93
2018-09-22T04:13:37.686Z,979.87
2018-09-22T04:14:37.674Z,979.80
2018-09-22T04:15:37.661Z,979.73
2018-09-22T04:16:37.655Z,979.71
2018-09-22T04:17:37.638Z,979.71
2018-09-22T04:18:37.635Z,979.71
2018-09-22T04:19:37.621Z,979.73
2018-09-22T04:20:37.610Z,979.75
2018-09-22T04:21:37.601Z,979.76
2018-09-22T04:22:37.597Z,979.77
2018-09-22T04:23:37.582Z,979.71
2018-09-22T04:24:37.581Z,979.70
2018-09-22T04:25:37.569Z,979.72
2018-09-22T04:26:37.554Z,979.67
2018-09-22T04:27:37.550Z,979.65
2018-09-22T04:28:37.535Z,979.71
2018-09-22T04:29:37.529Z,979.68
2018-09-22T04:30:37.522Z,979.72
2018-09-22T04:31:37.507Z,979.74
2018-09-22T04:32:37.497Z,979.79
2018-09-22T04:33:37.492Z,979.79
2018-09-22T04:34:37.482Z,979.82
2018-09-22T04:35:37.472Z,979.83
2018-09-22T04:36:37.460Z,979.85
2018-09-22T04:37:37.453Z,979.90
2018-09-22T04:38:37.439Z,979.88
2018-09-22T04:39:37.437Z,979.90
2018-09-22T04:40:37.422Z,979.90
2018-09-22T04:41:37.419Z,979.94
2018-09-22T04:42:37.403Z,980.00
2018-09-22T04:43:37.393Z,979.94
2018-09-22T04:44:37.388Z,979.93
2018-09-22T04:45:37.382Z,979.93
2018-09-22T04:46:37.364Z,979.94
2018-09-22T04:47:37.358Z,979.99
2018-09-22T04:48:37.348Z,979.98
2018-09-22T04:49:37.338Z,979.91
2018-09-22T04:50:37.327Z,979.90
2018-09-22T04:51:37.322Z,979.90
2018-09-22T04:52:37.315Z,979.93
2018-09-22T04:53:37.304Z,979.99
2018-09-22T04:54:37.292Z,980.03
2018-09-22T04:55:37.279Z,979.99
2018-09-22T04:56:37.273Z,979.99
2018-09-22T04:57:37.263Z,979.95
2018-09-22T04:58:37.251Z,979.95
2018-09-22T04:59:37.245Z,979.94
2018-09-22T05:00:37.237Z,979.88
2018-09-22T05:01:37.228Z,979.84
2018-09-22T05:02:37.212Z,979.81
2018-09-22T05:03:37.203Z,979.75
2018-09-22T05:04:37.194Z,979.74
2018-09-22T05:05:37.188Z,979.70
2018-09-22T05:06:37.175Z,979.70
2018-09-22T05:07:37.166Z,979.72
2018-09-22T05:08:37.163Z,979.75
2018-09-22T05:09:37.147Z,979.73
2018-09-22T05:10:37.143Z,979.73
2018-09-22T05:11:37.128Z,979.76
2018-09-22T05:12:37.119Z,979.72
2018-09-22T05:13:37.114Z,979.72
2018-09-22T05:14:37.103Z,979.71
2018-09-22T05:15:37.096Z,979.70
2018-09-22T05:16:37.084Z,979.65
2018-09-22T05:17:37.071Z,979.62
2018-09-22T05:18:37.065Z,979.63
2018-09-22T05:19:37.056Z,979.68
2018-09-22T05:20:37.049Z,979.61
2018-09-22T05:21:37.037Z,979.62
2018-09-22T05:22:37.027Z,979.62
2018-09-22T05:23:37.018Z,979.60
2018-09-22T05:24:37.017Z,979.55
2018-09-22T05:25:36.995Z,979.64
2018-09-22T05:26:36.990Z,979.60
2018-09-22T05:27:36.981Z,979.53
2018-09-22T05:28:36.969Z,979.52
2018-09-22T05:29:36.957Z,979.48
2018-09-22T05:30:36.951Z,979.45
2018-09-22T05:31:36.940Z,979.46
2018-09-22T05:32:36.936Z,979.48
2018-09-22T05:33:37.004Z,979.47
2018-09-22T05:34:36.912Z,979.51
2018-09-22T05:35:36.904Z,979.49
2018-09-22T05:36:36.894Z,979.50
2018-09-22T05:37:36.884Z,979.52
2018-09-22T05:38:36.874Z,979.55
2018-09-22T05:39:36.869Z,979.63
2018-09-22T05:40:36.856Z,979.68
2018-09-22T05:41:36.849Z,979.66
2018-09-22T05:42:36.840Z,979.67
2018-09-22T05:43:36.831Z,979.63
2018-09-22T05:44:36.818Z,979.63
2018-09-22T05:45:36.812Z,979.61
2018-09-22T05:46:36.805Z,979.63
2018-09-22T05:47:36.789Z,979.58
2018-09-22T05:48:36.780Z,979.60
2018-09-22T05:49:36.774Z,979.62
2018-09-22T05:50:36.765Z,979.59
2018-09-22T05:51:36.755Z,979.62
2018-09-22T05:52:36.747Z,979.67
2018-09-22T05:53:36.733Z,979.67
2018-09-22T05:54:36.733Z,979.70
2018-09-22T05:55:36.720Z,979.70
2018-09-22T05:56:36.712Z,979.68
2018-09-22T05:57:36.695Z,979.72
2018-09-22T05:58:36.686Z,979.72
2018-09-22T05:59:36.681Z,979.75
2018-09-22T06:00:36.674Z,979.71
2018-09-22T06:01:36.660Z,979.70
2018-09-22T06:02:36.648Z,979.71
2018-09-22T06:03:36.787Z,979.66
2018-09-22T06:04:36.629Z,979.62
2018-09-22T06:05:36.621Z,979.53
2018-09-22T06:06:36.617Z,979.50
2018-09-22T06:07:36.607Z,979.44
2018-09-22T06:08:36.596Z,979.49
2018-09-22T06:09:36.655Z,979.50
2018-09-22T06:10:36.573Z,979.58
2018-09-22T06:11:36.564Z,979.58
2018-09-22T06:12:36.561Z,979.58
2018-09-22T06:13:36.546Z,979.59
2018-09-22T06:14:36.541Z,979.62
2018-09-22T06:15:36.533Z,979.60
2018-09-22T06:16:36.523Z,979.57
2018-09-22T06:17:36.514Z,979.52
2018-09-22T06:18:36.498Z,979.49
2018-09-22T06:19:36.490Z,979.61
2018-09-22T06:20:36.481Z,979.71
2018-09-22T06:21:36.471Z,979.77
2018-09-22T06:22:36.461Z,979.76
2018-09-22T06:23:36.489Z,979.78
2018-09-22T06:24:36.444Z,979.71
2018-09-22T06:25:36.434Z,979.72
2018-09-22T06:26:36.431Z,979.68
2018-09-22T06:27:36.422Z,979.70
2018-09-22T06:28:36.409Z,979.80
2018-09-22T06:29:36.396Z,979.81
2018-09-22T06:30:36.388Z,979.80
2018-09-22T06:31:36.382Z,979.85
2018-09-22T06:32:36.370Z,979.84
2018-09-22T06:33:36.365Z,979.86
2018-09-22T06:34:36.355Z,979.80
2018-09-22T06:35:36.346Z,979.88
2018-09-22T06:36:36.341Z,979.83
2018-09-22T06:37:36.330Z,979.88
2018-09-22T06:38:36.318Z,979.84
2018-09-22T06:39:36.311Z,979.86
2018-09-22T06:40:36.302Z,979.85
2018-09-22T06:41:36.294Z,979.86
2018-09-22T06:42:36.286Z,979.87
2018-09-22T06:43:36.275Z,979.93
2018-09-22T06:44:36.267Z,979.96
2018-09-22T06:45:36.259Z,979.93
2018-09-22T06:46:36.246Z,979.95
2018-09-22T06:47:36.237Z,979.93
2018-09-22T06:48:36.228Z,979.89
2018-09-22T06:49:36.222Z,979.87
2018-09-22T06:50:36.211Z,979.85
2018-09-22T06:51:36.217Z,979.81
2018-09-22T06:52:36.194Z,979.77
2018-09-22T06:53:36.189Z,979.82
2018-09-22T06:54:36.174Z,979.85
2018-09-22T06:55:36.168Z,979.90
2018-09-22T06:56:36.161Z,979.89
2018-09-22T06:57:36.158Z,979.97
2018-09-22T06:58:36.140Z,979.97
2018-09-22T06:59:36.132Z,979.95
2018-09-22T07:00:36.122Z,979.99
2018-09-22T07:01:36.116Z,979.99
2018-09-22T07:02:36.107Z,980.00
2018-09-22T07:03:36.105Z,979.96
2018-09-22T07:04:36.088Z,979.88
2018-09-22T07:05:36.085Z,979.88
2018-09-22T07:06:36.073Z,979.79
2018-09-22T07:07:36.063Z,979.78
2018-09-22T07:08:36.058Z,979.75
2018-09-22T07:09:36.049Z,979.71
2018-09-22T07:10:36.055Z,979.72
2018-09-22T07:11:36.032Z,979.75
2018-09-22T07:12:36.022Z,979.84
2018-09-22T07:13:36.009Z,979.77
2018-09-22T07:14:35.999Z,979.77
2018-09-22T07:15:35.993Z,979.77
2018-09-22T07:16:35.989Z,979.78
2018-09-22T07:17:35.975Z,979.80
2018-09-22T07:18:35.967Z,979.77
2018-09-22T07:19:36.076Z,979.80
2018-09-22T07:20:35.954Z,979.86
2018-09-22T07:21:35.945Z,979.86
2018-09-22T07:22:35.943Z,979.91
2018-09-22T07:23:35.927Z,979.94
2018-09-22T07:24:35.921Z,979.97
2018-09-22T07:25:35.909Z,979.98
2018-09-22T07:26:35.903Z,980.01
2018-09-22T07:27:35.893Z,980.01
2018-09-22T07:28:35.892Z,980.02
2018-09-22T07:29:35.879Z,980.01
2018-09-22T07:30:35.878Z,980.00
2018-09-22T07:31:35.871Z,979.99
2018-09-22T07:32:35.859Z,979.96
2018-09-22T07:33:35.848Z,979.91
2018-09-22T07:34:35.838Z,979.91
2018-09-22T07:35:35.830Z,979.93
2018-09-22T07:36:35.822Z,979.95
2018-09-22T07:37:35.811Z,979.98
2018-09-22T07:38:35.807Z,980.03
2018-09-22T07:39:35.800Z,980.06
2018-09-22T07:40:35.792Z,980.08
2018-09-22T07:41:35.778Z,980.10
2018-09-22T07:42:35.771Z,980.13
2018-09-22T07:43:35.770Z,980.15
2018-09-22T07:44:35.756Z,980.15
2018-09-22T07:45:35.782Z,980.17
2018-09-22T07:46:35.743Z,980.30
2018-09-22T07:47:35.733Z,980.31
2018-09-22T07:48:35.729Z,980.36
2018-09-22T07:49:35.714Z,980.35
2018-09-22T07:50:35.709Z,980.40
2018-09-22T07:51:35.698Z,980.41
2018-09-22T07:52:35.691Z,980.40
2018-09-22T07:53:35.685Z,980.42
2018-09-22T07:54:35.675Z,980.36
2018-09-22T07:55:35.669Z,980.32
2018-09-22T07:56:35.663Z,980.30
2018-09-22T07:57:35.651Z,980.30
2018-09-22T07:58:35.696Z,980.27
2018-09-22T07:59:35.638Z,980.27
2018-09-22T08:00:35.795Z,980.26
2018-09-22T08:01:35.618Z,980.31
2018-09-22T08:02:35.612Z,980.29
2018-09-22T08:03:35.612Z,980.34
2018-09-22T08:04:35.598Z,980.30
2018-09-22T08:05:35.586Z,980.28
2018-09-22T08:06:35.583Z,980.28
2018-09-22T08:07:35.575Z,980.29
2018-09-22T08:08:35.570Z,980.27
2018-09-22T08:09:35.562Z,980.23
2018-09-22T08:10:35.551Z,980.23
2018-09-22T08:11:35.564Z,980.22
2018-09-22T08:12:35.540Z,980.24
2018-09-22T08:13:35.531Z,980.23
2018-09-22T08:14:35.524Z,980.23
2018-09-22T08:15:35.512Z,980.25
2018-09-22T08:16:35.508Z,980.26
2018-09-22T08:17:35.502Z,980.21
2018-09-22T08:18:35.496Z,980.20
2018-09-22T08:19:35.482Z,980.19
2018-09-22T08:20:35.481Z,980.14
2018-09-22T08:21:35.471Z,980.18
2018-09-22T08:22:35.467Z,980.23
2018-09-22T08:23:35.453Z,980.25
2018-09-22T08:24:35.447Z,980.28
2018-09-22T08:25:35.439Z,980.28
2018-09-22T08:26:35.437Z,980.27
2018-09-22T08:27:35.430Z,980.24
2018-09-22T08:28:35.417Z,980.20
2018-09-22T08:29:35.413Z,980.14
2018-09-22T08:30:35.403Z,980.06
2018-09-22T08:31:35.415Z,980.06
2018-09-22T08:32:35.395Z,980.06
2018-09-22T08:33:35.385Z,980.07
2018-09-22T08:34:35.383Z,980.07
2018-09-22T08:35:35.371Z,980.13
2018-09-22T08:36:35.564Z,980.17
2018-09-22T08:37:35.360Z,980.19
2018-09-22T08:38:35.359Z,980.21
2018-09-22T08:39:35.344Z,980.19
2018-09-22T08:40:35.343Z,980.23
2018-09-22T08:41:35.330Z,980.26
2018-09-22T08:42:35.324Z,980.34
2018-09-22T08:43:35.317Z,980.32
2018-09-22T08:44:35.311Z,980.31
2018-09-22T08:45:35.308Z,980.29
2018-09-22T08:46:35.297Z,980.27
2018-09-22T08:47:35.291Z,980.23
2018-09-22T08:48:35.291Z,980.19
2018-09-22T08:49:35.408Z,980.25
2018-09-22T08:50:35.271Z,980.27
2018-09-22T08:51:35.265Z,980.27
2018-09-22T08:52:35.259Z,980.29
2018-09-22T08:53:35.251Z,980.25
2018-09-22T08:54:35.246Z,980.25
2018-09-22T08:55:35.245Z,980.18
2018-09-22T08:56:35.239Z,980.16
2018-09-22T08:57:35.225Z,980.17
2018-09-22T08:58:35.223Z,980.18
2018-09-22T08:59:35.214Z,980.16
2018-09-22T09:00:35.225Z,980.17
2018-09-22T09:01:35.203Z,980.19
2018-09-22T09:02:35.194Z,980.17
2018-09-22T09:03:35.190Z,980.21
2018-09-22T09:04:35.184Z,980.21
2018-09-22T09:05:35.180Z,980.26
2018-09-22T09:06:35.170Z,980.25
2018-09-22T09:07:35.168Z,980.24
2018-09-22T09:08:35.162Z,980.21
2018-09-22T09:09:35.154Z,980.23
2018-09-22T09:10:35.151Z,980.25
2018-09-22T09:11:35.227Z,980.26
2018-09-22T09:12:35.131Z,980.22
2018-09-22T09:13:35.126Z,980.22
2018-09-22T09:14:35.179Z,980.15
2018-09-22T09:15:35.112Z,980.10
2018-09-22T09:16:35.107Z,980.11
2018-09-22T09:17:35.099Z,980.10
2018-09-22T09:18:35.093Z,980.06
2018-09-22T09:19:35.095Z,980.05
2018-09-22T09:20:35.089Z,980.04
2018-09-22T09:21:35.082Z,980.00
2018-09-22T09:22:35.071Z,979.98
2018-09-22T09:23:35.065Z,979.95
2018-09-22T09:24:35.059Z,980.00
2018-09-22T09:25:35.051Z,980.03
2018-09-22T09:26:35.048Z,979.96
2018-09-22T09:27:35.048Z,979.99
2018-09-22T09:28:35.035Z,980.00
2018-09-22T09:29:35.026Z,979.96
2018-09-22T09:30:35.022Z,979.98
2018-09-22T09:31:35.016Z,979.97
2018-09-22T09:32:35.012Z,979.98
2018-09-22T09:33:35.007Z,980.02
2018-09-22T09:34:34.997Z,979.95
2018-09-22T09:35:34.990Z,979.95
2018-09-22T09:36:34.988Z,979.86
2018-09-22T09:37:34.981Z,979.88
2018-09-22T09:38:34.976Z,979.86
2018-09-22T09:39:34.964Z,979.87
2018-09-22T09:40:34.960Z,979.85
2018-09-22T09:41:34.951Z,979.84
2018-09-22T09:42:34.951Z,979.83
2018-09-22T09:43:34.973Z,979.81
2018-09-22T09:44:34.934Z,979.82
2018-09-22T09:45:34.928Z,979.86
2018-09-22T09:46:34.922Z,979.86
2018-09-22T09:47:34.920Z,979.87
2018-09-22T09:48:34.913Z,979.89
2018-09-22T09:49:34.908Z,979.88
2018-09-22T09:50:34.905Z,979.86
2018-09-22T09:51:34.899Z,979.92
2018-09-22T09:52:34.894Z,979.88
2018-09-22T09:53:34.883Z,979.93
2018-09-22T09:54:34.897Z,979.89
2018-09-22T09:55:34.879Z,979.83
2018-09-22T09:56:34.868Z,979.82
2018-09-22T09:57:34.871Z,979.86
2018-09-22T09:58:34.856Z,979.82
2018-09-22T09:59:34.854Z,979.89
2018-09-22T10:00:34.846Z,979.87
2018-09-22T10:01:34.839Z,979.90
2018-09-22T10:02:34.840Z,979.89
2018-09-22T10:03:34.829Z,979.84
2018-09-22T10:04:34.880Z,979.80
2018-09-22T10:05:34.822Z,979.80
2018-09-22T10:06:34.813Z,979.77
2018-09-22T10:07:34.811Z,979.78
2018-09-22T10:08:34.807Z,979.74
2018-09-22T10:09:34.799Z,979.69
2018-09-22T10:10:34.794Z,979.70
2018-09-22T10:11:34.819Z,979.66
2018-09-22T10:12:34.780Z,979.71
2018-09-22T10:13:34.777Z,979.74
2018-09-22T10:14:34.772Z,979.75
2018-09-22T10:15:34.771Z,979.70
2018-09-22T10:16:34.763Z,979.69
2018-09-22T10:17:34.754Z,979.66
2018-09-22T10:18:34.753Z,979.59
2018-09-22T10:19:34.744Z,979.60
2018-09-22T10:20:34.740Z,979.62
2018-09-22T10:21:34.734Z,979.61
2018-09-22T10:22:34.731Z,979.61
2018-09-22T10:23:34.722Z,979.63
2018-09-22T10:24:34.726Z,979.65
2018-09-22T10:25:34.719Z,979.63
2018-09-22T10:26:34.706Z,979.64
2018-09-22T10:27:34.706Z,979.57
2018-09-22T10:28:34.751Z,979.60
2018-09-22T10:29:34.689Z,979.63
2018-09-22T10:30:34.691Z,979.63
2018-09-22T10:31:34.680Z,979.63
2018-09-22T10:32:34.677Z,979.59
2018-09-22T10:33:34.671Z,979.58
2018-09-22T10:34:34.662Z,979.51
2018-09-22T10:35:34.658Z,979.50
2018-09-22T10:36:34.653Z,979.44
2018-09-22T10:37:34.653Z,979.40
2018-09-22T10:38:34.648Z,979.38
2018-09-22T10:39:34.643Z,979.40
2018-09-22T10:40:34.636Z,979.39
2018-09-22T10:41:34.632Z,979.34
2018-09-22T10:42:34.625Z,979.32
2018-09-22T10:43:34.618Z,979.28
2018-09-22T10:44:34.612Z,979.27
2018-09-22T10:45:34.613Z,979.26
2018-09-22T10:46:34.608Z,979.30
2018-09-22T10:47:34.600Z,979.29
2018-09-22T10:48:34.624Z,979.28
2018-09-22T10:49:34.590Z,979.18
2018-09-22T10:50:34.588Z,979.19
2018-09-22T10:51:34.577Z,979.24
2018-09-22T10:52:34.640Z,979.25
2018-09-22T10:53:34.567Z,979.24
2018-09-22T10:54:34.561Z,979.24
2018-09-22T10:55:34.563Z,979.18
2018-09-22T10:56:34.555Z,979.22
2018-09-22T10:57:34.548Z,979.22
2018-09-22T10:58:34.541Z,979.22
2018-09-22T10:59:34.537Z,979.23
2018-09-22T11:00:34.532Z,979.23
2018-09-22T11:01:34.527Z,979.23
2018-09-22T11:02:34.522Z,979.28
2018-09-22T11:03:34.519Z,979.25
2018-09-22T11:04:34.517Z,979.21
2018-09-22T11:05:34.508Z,979.12
2018-09-22T11:06:34.507Z,979.01
2018-09-22T11:07:34.503Z,978.98
2018-09-22T11:08:34.494Z,978.96
2018-09-22T11:09:34.494Z,979.05
2018-09-22T11:10:34.484Z,979.02
2018-09-22T11:11:34.482Z,979.04
2018-09-22T11:12:34.478Z,979.03
2018-09-22T11:13:34.468Z,979.02
2018-09-22T11:14:34.471Z,979.05
2018-09-22T11:15:34.461Z,979.05
2018-09-22T11:16:34.456Z,979.07
2018-09-22T11:17:34.456Z,979.04
2018-09-22T11:18:34.451Z,979.04
2018-09-22T11:19:34.441Z,979.04
2018-09-22T11:20:34.440Z,979.06
2018-09-22T11:21:34.431Z,979.02
2018-09-22T11:22:34.530Z,979.03
2018-09-22T11:23:34.423Z,978.98
2018-09-22T11:24:34.421Z,978.96
2018-09-22T11:25:34.413Z,978.92
2018-09-22T11:26:34.409Z,978.95
2018-09-22T11:27:34.405Z,978.95
2018-09-22T11:28:34.402Z,978.91
2018-09-22T11:29:34.395Z,978.87
2018-09-22T11:30:34.392Z,978.90
2018-09-22T11:31:34.392Z,978.86
2018-09-22T11:32:34.391Z,978.80
2018-09-22T11:33:34.378Z,978.79
2018-09-22T11:34:34.475Z,978.80
2018-09-22T11:35:34.370Z,978.82
2018-09-22T11:36:34.365Z,978.86
2018-09-22T11:37:34.359Z,978.82
2018-09-22T11:38:34.356Z,978.86
2018-09-22T11:39:34.351Z,978.83
2018-09-22T11:40:34.360Z,978.79
2018-09-22T11:41:34.345Z,978.75
2018-09-22T11:42:34.343Z,978.79
2018-09-22T11:43:34.338Z,978.81
2018-09-22T11:44:34.332Z,978.80
2018-09-22T11:45:34.326Z,978.84
2018-09-22T11:46:34.325Z,978.83
2018-09-22T11:47:34.318Z,978.82
2018-09-22T11:48:34.311Z,978.84
2018-09-22T11:49:34.311Z,978.87
2018-09-22T11:50:34.304Z,978.80
2018-09-22T11:51:34.301Z,978.82
2018-09-22T11:52:34.297Z,978.80
2018-09-22T11:53:34.287Z,978.80
2018-09-22T11:54:34.282Z,978.79
2018-09-22T11:55:34.278Z,978.74
2018-09-22T11:56:34.347Z,978.74
2018-09-22T11:57:34.319Z,978.73
2018-09-22T11:58:34.266Z,978.67
2018-09-22T11:59:34.261Z,978.57
2018-09-22T12:00:34.264Z,978.53
2018-09-22T12:01:34.253Z,978.50
2018-09-22T12:02:34.252Z,978.49
2018-09-22T12:03:34.247Z,978.51
2018-09-22T12:04:34.244Z,978.48
2018-09-22T12:05:34.235Z,978.47
2018-09-22T12:06:34.306Z,978.43
2018-09-22T12:07:34.225Z,978.42
2018-09-22T12:08:34.221Z,978.41
2018-09-22T12:09:34.220Z,978.37
2018-09-22T12:10:34.217Z,978.35
2018-09-22T12:11:34.210Z,978.35
2018-09-22T12:12:34.209Z,978.36
2018-09-22T12:13:34.202Z,978.29
2018-09-22T12:14:34.199Z,978.27
2018-09-22T12:15:34.191Z,978.28
2018-09-22T12:16:34.193Z,978.25
2018-09-22T12:17:34.184Z,978.20
2018-09-22T12:18:34.182Z,978.17
2018-09-22T12:19:34.177Z,978.20
2018-09-22T12:20:34.172Z,978.21
2018-09-22T12:21:34.169Z,978.23
2018-09-22T12:22:34.161Z,978.20
2018-09-22T12:23:34.160Z,978.22
2018-09-22T12:24:34.153Z,978.24
2018-09-22T12:25:34.148Z,978.19
2018-09-22T12:26:34.144Z,978.17
2018-09-22T12:27:34.147Z,978.13
2018-09-22T12:28:34.142Z,978.18